Orleans, IN

9:48 AM EST on January 28, 2015 (GMT -0500)
Monroe County | Change Station
CLOSE
Current Station
Airport
Location: Bloomington,
Elevation: 846 ft
Nearby Weather Stations

Elev 846 ft 39.15 °N, 86.62 °W | Updated 55 minutes ago

Clear
Clear
20 °F
Feels Like 13 °F
N
5
Wind Variable Wind from SE

Today
High -- | Low -- °F
--% Chance of Precip.
Yesterday
High -- | Low -- °F
Precip. -- in
7:55 AM 6:02 PM
Waxing Gibbous, 65% visible
Pressure 30.37 in
Visibility 6.0 miles
Clouds Clear
Windchill 13 °F
Dew Point 17 °F
Humidity 89%
Rainfall 0.00 in
Snow Depth Not available.
UV 0 out of 12
Pollen .30 out of 12
Air Quality Not available.
Flu Activity Not available.
METAR KBMG 281353Z 13004KT 6SM BR CLR M07/M08 A3033 RMK AO2 SLP282 T10671083

More Conditions Fewer Conditions

Pressure 30.37 in
Visibility 6.0 miles
Clouds Clear
Windchill 13 °F
Dew Point 17 °F
Humidity 89%
Rainfall 0.00 in
Snow Depth Not available.
UV 0 out of 12
Pollen .30 out of 12
Air Quality Not available.
Flu Activity Not available.
METAR KBMG 281353Z 13004KT 6SM BR CLR M07/M08 A3033 RMK AO2 SLP282 T10671083

More Conditions Fewer Conditions

10-Day Weather Forecast

Almanac

Astronomy

Jan. 28, 2015 Rise Set
Actual Time
Civil Twilight
Nautical Twilight
Astronomical Twilight
Moon
Length of Visible Light
Length of Day
Tomorrow will be .
, % of the Moon is Illuminated

Today's Extremes

State Highs State Lows

Community

WunderPhotos

Upload Photos

1,791,160 photos uploaded!

WunderBlogs® & News

Nearby

Air Quality

  Air Quality AQ Index Pollutant
Not available.

Snow Depth

Station Depth Elevation

Earthquake Activity

City Distance Mag. Time & Date
Minimum magnitude displayed is 2.5.

Coastal Water Temperatures

Place Temperature

Nearby Weather Stations